createdAt,value
2022-11-04T00:01:42.785Z,99841.03
2022-11-04T00:04:10.659Z,99843.50
2022-11-04T00:06:37.843Z,99848.09
2022-11-04T00:09:06.474Z,99843.94
2022-11-04T00:11:51.315Z,99844.28
2022-11-04T00:14:17.973Z,99855.28
2022-11-04T00:17:03.070Z,99849.53
2022-11-04T00:19:49.672Z,99852.41
2022-11-04T00:22:35.246Z,99844.56
2022-11-04T00:25:20.481Z,99851.19
2022-11-04T00:28:05.453Z,99833.13
2022-11-04T00:30:32.162Z,99828.69
2022-11-04T00:33:17.258Z,99826.47
2022-11-04T00:35:50.911Z,99829.19
2022-11-04T00:38:17.979Z,99824.94
2022-11-04T00:40:44.651Z,99833.50
2022-11-04T00:43:11.984Z,99825.09
2022-11-04T00:45:41.118Z,99826.66
2022-11-04T00:48:07.865Z,99824.66
2022-11-04T00:50:34.534Z,99823.94
2022-11-04T00:53:01.959Z,99825.47
2022-11-04T00:55:28.685Z,99823.53
2022-11-04T00:57:55.715Z,99818.84
2022-11-04T01:00:22.286Z,99810.28
2022-11-04T01:02:48.722Z,99807.84
2022-11-04T01:05:15.908Z,99798.34
2022-11-04T01:07:43.796Z,99794.56
2022-11-04T01:10:11.212Z,99799.53
2022-11-04T01:12:37.627Z,99793.94
2022-11-04T01:15:04.522Z,99784.06
2022-11-04T01:17:30.919Z,99778.13
2022-11-04T01:19:57.307Z,99788.31
2022-11-04T01:22:23.706Z,99791.34
2022-11-04T01:24:50.112Z,99790.81
2022-11-04T01:27:16.523Z,99780.25
2022-11-04T01:29:42.930Z,99780.94
2022-11-04T01:32:09.321Z,99784.56
2022-11-04T01:34:40.627Z,99780.22
2022-11-04T01:37:09.766Z,99780.31
2022-11-04T01:39:36.153Z,99777.31
2022-11-04T01:44:49.653Z,99778.13
2022-11-04T01:47:18.691Z,99781.94
2022-11-04T01:49:49.179Z,99791.41
2022-11-04T01:52:24.307Z,99782.50
2022-11-04T01:54:55.507Z,99784.97
2022-11-04T01:57:33.081Z,99778.72
2022-11-04T02:00:02.709Z,99778.16
2022-11-04T02:02:29.319Z,99774.38
2022-11-04T02:04:56.657Z,99779.38
2022-11-04T02:07:23.554Z,99781.09
2022-11-04T02:09:50.209Z,99777.00
2022-11-04T02:12:35.890Z,99770.09
2022-11-04T02:15:02.664Z,99770.66
2022-11-04T02:17:49.553Z,99770.72
2022-11-04T02:20:21.892Z,99767.72
2022-11-04T02:23:20.792Z,99763.63
2022-11-04T02:26:08.657Z,99776.97
2022-11-04T02:29:22.725Z,99771.66
2022-11-04T02:31:52.580Z,99773.38
2022-11-04T02:34:26.668Z,99787.59
2022-11-04T02:37:02.997Z,99784.78
2022-11-04T02:39:58.703Z,99791.47
2022-11-04T02:42:27.873Z,99776.09
2022-11-04T02:45:06.229Z,99764.38
2022-11-04T02:47:37.033Z,99763.78
2022-11-04T02:50:12.785Z,99761.16
2022-11-04T02:52:51.515Z,99749.31
2022-11-04T02:55:24.177Z,99744.28
2022-11-04T02:57:53.858Z,99727.59
2022-11-04T03:00:21.312Z,99722.81
2022-11-04T03:02:50.337Z,99721.47
2022-11-04T03:05:22.177Z,99719.75
2022-11-04T03:07:51.373Z,99710.84
2022-11-04T03:10:24.766Z,99713.28
2022-11-04T03:13:25.545Z,99715.19
2022-11-04T03:15:57.211Z,99708.53
2022-11-04T03:18:23.567Z,99715.72
2022-11-04T03:20:51.529Z,99710.94
2022-11-04T03:23:18.580Z,99707.06
2022-11-04T03:25:48.003Z,99701.63
2022-11-04T03:28:27.283Z,99703.91
2022-11-04T03:30:58.978Z,99703.25
2022-11-04T03:33:34.512Z,99704.44
2022-11-04T03:36:03.001Z,99697.78
2022-11-04T03:38:29.436Z,99700.16
2022-11-04T03:40:58.549Z,99702.09
2022-11-04T03:43:27.747Z,99707.91
2022-11-04T03:45:55.077Z,99728.69
2022-11-04T03:48:22.948Z,99712.31
2022-11-04T03:50:51.006Z,99727.91
2022-11-04T03:53:21.951Z,99729.53
2022-11-04T03:56:12.074Z,99734.63
2022-11-04T03:58:55.957Z,99731.91
2022-11-04T04:01:44.369Z,99725.72
2022-11-04T04:04:23.865Z,99728.44
2022-11-04T04:06:54.495Z,99729.09
2022-11-04T04:09:27.635Z,99736.16
2022-11-04T04:12:01.004Z,99726.81
2022-11-04T04:14:57.321Z,99726.44
2022-11-04T04:17:37.936Z,99715.09
2022-11-04T04:20:09.401Z,99715.94
2022-11-04T04:22:51.316Z,99721.47
2022-11-04T04:25:38.006Z,99716.47
2022-11-04T04:28:05.831Z,99721.13
2022-11-04T04:30:32.733Z,99721.59
2022-11-04T04:33:11.513Z,99724.63
2022-11-04T04:35:49.148Z,99726.56
2022-11-04T04:38:43.743Z,99725.34
2022-11-04T04:41:48.999Z,99717.94
2022-11-04T04:44:47.380Z,99715.75
2022-11-04T04:47:25.801Z,99717.28
2022-11-04T04:49:56.664Z,99714.47
2022-11-04T04:52:25.527Z,99714.91
2022-11-04T04:54:51.919Z,99723.13
2022-11-04T04:57:18.388Z,99727.84
2022-11-04T04:59:44.817Z,99731.38
2022-11-04T05:02:11.440Z,99734.84
2022-11-04T05:04:37.980Z,99736.53
2022-11-04T05:07:04.417Z,99738.13
2022-11-04T05:09:30.799Z,99744.63
2022-11-04T05:11:57.741Z,99747.72
2022-11-04T05:14:24.157Z,99750.06
2022-11-04T05:16:50.565Z,99757.59
2022-11-04T05:19:17.083Z,99751.66
2022-11-04T05:21:43.509Z,99751.47
2022-11-04T05:24:10.860Z,99758.50
2022-11-04T05:26:37.372Z,99744.91
2022-11-04T05:29:04.165Z,99764.03
2022-11-04T05:31:30.792Z,99764.88
2022-11-04T05:33:58.932Z,99763.44
2022-11-04T05:36:25.993Z,99767.59
2022-11-04T05:38:55.543Z,99773.44
2022-11-04T05:41:27.781Z,99776.31
2022-11-04T05:43:56.484Z,99779.72
2022-11-04T05:46:23.834Z,99795.31
2022-11-04T05:48:50.737Z,99796.56
2022-11-04T05:51:19.999Z,99793.88
2022-11-04T05:53:46.400Z,99796.91
2022-11-04T05:56:12.912Z,99797.03
2022-11-04T05:58:39.500Z,99804.38
2022-11-04T06:01:27.883Z,99810.03
2022-11-04T06:03:55.333Z,99813.91
2022-11-04T06:06:23.251Z,99814.34
2022-11-04T06:08:50.810Z,99811.25
2022-11-04T06:11:18.213Z,99810.53
2022-11-04T06:13:44.792Z,99811.69
2022-11-04T06:16:11.431Z,99794.47
2022-11-04T06:18:37.845Z,99797.28
2022-11-04T06:21:31.625Z,99803.94
2022-11-04T06:23:58.903Z,99799.28
2022-11-04T06:26:28.284Z,99809.00
2022-11-04T06:28:55.387Z,99809.94
2022-11-04T06:31:22.163Z,99808.44
2022-11-04T06:33:48.747Z,99814.53
2022-11-04T06:36:16.406Z,99817.25
2022-11-04T06:38:43.301Z,99809.06
2022-11-04T06:41:15.838Z,99799.25
2022-11-04T06:43:42.638Z,99809.91
2022-11-04T06:46:25.411Z,99805.66
2022-11-04T06:48:51.933Z,99811.13
2022-11-04T06:51:18.816Z,99816.22
2022-11-04T06:53:45.250Z,99822.91
2022-11-04T06:56:11.649Z,99816.16
2022-11-04T06:58:38.174Z,99822.44
2022-11-04T07:01:11.091Z,99823.28
2022-11-04T07:03:40.135Z,99835.06
2022-11-04T07:06:10.989Z,99842.16
2022-11-04T07:08:37.448Z,99840.66
2022-11-04T07:11:04.470Z,99845.22
2022-11-04T07:13:30.917Z,99844.06
2022-11-04T07:15:57.943Z,99843.78
2022-11-04T07:18:24.373Z,99848.00
2022-11-04T07:20:50.812Z,99855.41
2022-11-04T07:23:17.678Z,99855.09
2022-11-04T07:25:44.183Z,99859.44
2022-11-04T07:28:10.944Z,99854.34
2022-11-04T07:30:37.530Z,99844.91
2022-11-04T07:33:03.965Z,99847.63
2022-11-04T07:35:30.471Z,99852.91
2022-11-04T07:37:56.876Z,99846.97
2022-11-04T07:40:23.284Z,99853.97
2022-11-04T07:42:49.753Z,99855.19
2022-11-04T07:45:16.424Z,99856.72
2022-11-04T07:47:42.837Z,99857.06
2022-11-04T07:50:11.264Z,99859.63
2022-11-04T07:52:38.383Z,99864.38
2022-11-04T07:55:05.459Z,99869.44
2022-11-04T07:57:31.891Z,99871.00
2022-11-04T07:59:58.357Z,99872.94
2022-11-04T08:02:28.651Z,99871.47
2022-11-04T08:04:57.587Z,99879.34
2022-11-04T08:07:24.523Z,99873.81
2022-11-04T08:09:50.902Z,99864.81
2022-11-04T08:12:17.347Z,99871.97
2022-11-04T08:14:43.769Z,99873.16
2022-11-04T08:17:10.187Z,99859.09
2022-11-04T08:19:36.645Z,99854.00
2022-11-04T08:22:03.161Z,99850.56
2022-11-04T08:24:29.613Z,99856.03
2022-11-04T08:26:56.035Z,99861.53
2022-11-04T08:29:23.669Z,99866.66
2022-11-04T08:31:50.065Z,99868.25
2022-11-04T08:34:18.339Z,99866.41
2022-11-04T08:36:45.536Z,99883.22
2022-11-04T08:39:13.285Z,99885.03
2022-11-04T08:41:43.019Z,99887.41
2022-11-04T08:44:11.948Z,99891.34
2022-11-04T08:46:40.271Z,99885.94
2022-11-04T08:49:10.567Z,99891.03
2022-11-04T08:51:41.913Z,99891.84
2022-11-04T08:54:08.698Z,99892.28
2022-11-04T08:56:37.537Z,99895.47
2022-11-04T08:59:05.437Z,99890.84
2022-11-04T09:01:36.828Z,99885.31
2022-11-04T09:04:05.392Z,99881.31
2022-11-04T09:06:36.040Z,99885.00
2022-11-04T09:09:04.917Z,99877.03
2022-11-04T09:11:38.221Z,99880.66
2022-11-04T09:14:05.580Z,99870.94
2022-11-04T09:16:34.675Z,99867.50
2022-11-04T09:19:01.962Z,99866.78
2022-11-04T09:21:29.077Z,99859.25
2022-11-04T09:23:56.054Z,99857.38
2022-11-04T09:26:23.920Z,99856.63
2022-11-04T09:28:55.788Z,99856.69
2022-11-04T09:31:22.847Z,99852.38
2022-11-04T09:33:50.375Z,99862.91
2022-11-04T09:36:17.228Z,99862.22
2022-11-04T09:38:43.712Z,99866.63
2022-11-04T09:41:28.695Z,99865.66
2022-11-04T09:44:11.805Z,99876.97
2022-11-04T09:46:39.428Z,99874.66
2022-11-04T09:49:08.843Z,99878.56
2022-11-04T09:51:53.689Z,99879.41
2022-11-04T09:54:33.226Z,99876.81
2022-11-04T09:57:02.607Z,99878.78
2022-11-04T09:59:32.829Z,99873.28
2022-11-04T10:02:12.056Z,99874.22
2022-11-04T10:05:02.598Z,99864.03
2022-11-04T10:07:50.183Z,99874.22
2022-11-04T10:10:42.571Z,99864.19
2022-11-04T10:13:32.304Z,99866.59
2022-11-04T10:16:19.015Z,99875.09
2022-11-04T10:19:16.049Z,99873.63
2022-11-04T10:22:03.084Z,99853.38
2022-11-04T10:24:41.315Z,99870.72
2022-11-04T10:27:16.232Z,99868.66
2022-11-04T10:29:47.189Z,99862.88
2022-11-04T10:32:22.550Z,99865.91
2022-11-04T10:34:57.269Z,99869.56
2022-11-04T10:37:25.561Z,99870.47
2022-11-04T10:39:59.486Z,99868.06
2022-11-04T10:42:26.091Z,99874.34
2022-11-04T10:44:53.037Z,99867.66
2022-11-04T10:47:41.270Z,99879.38
2022-11-04T10:50:41.983Z,99889.53
2022-11-04T10:53:18.330Z,99887.97
2022-11-04T10:56:07.951Z,99898.22
2022-11-04T10:58:45.138Z,99904.00
2022-11-04T11:01:31.746Z,99913.00
2022-11-04T11:03:59.318Z,99920.78
2022-11-04T11:06:29.698Z,99923.06
2022-11-04T11:09:29.560Z,99925.88
2022-11-04T11:12:02.080Z,99926.59
2022-11-04T11:14:28.508Z,99933.28
2022-11-04T11:17:14.277Z,99938.47
2022-11-04T11:19:56.294Z,99935.81
2022-11-04T11:22:41.222Z,99933.88
2022-11-04T11:25:25.881Z,99934.28
2022-11-04T11:28:00.122Z,99939.03
2022-11-04T11:30:33.845Z,99939.31
2022-11-04T11:33:08.625Z,99942.41
2022-11-04T11:35:42.130Z,99955.75
2022-11-04T11:38:19.004Z,99958.91
2022-11-04T11:41:03.819Z,99959.63
2022-11-04T11:43:36.611Z,99949.44
2022-11-04T11:46:03.297Z,99948.72
2022-11-04T11:48:32.697Z,99952.91
2022-11-04T11:51:00.270Z,99948.88
2022-11-04T11:53:34.275Z,99953.34
2022-11-04T11:56:14.784Z,99952.47
2022-11-04T12:01:46.838Z,99953.75
2022-11-04T12:10:29.947Z,99966.94
2022-11-04T12:13:02.770Z,99964.84
2022-11-04T12:15:51.903Z,99966.81
2022-11-04T12:18:27.542Z,99967.63
2022-11-04T12:21:24.060Z,99971.50
2022-11-04T12:24:01.109Z,99971.50
2022-11-04T12:26:53.906Z,99976.31
2022-11-04T12:29:51.397Z,99981.97
2022-11-04T12:32:22.499Z,99974.00
2022-11-04T12:35:20.574Z,99980.22
2022-11-04T12:37:56.073Z,99984.50
2022-11-04T12:40:29.547Z,99986.00
2022-11-04T12:42:59.111Z,99980.22
2022-11-04T12:45:44.382Z,99979.91
2022-11-04T12:48:20.273Z,99980.09
2022-11-04T12:50:56.073Z,99983.53
2022-11-04T12:53:51.540Z,99976.50
2022-11-04T12:56:20.492Z,99973.31
2022-11-04T12:59:05.655Z,99981.56
2022-11-04T13:01:39.148Z,99977.63
2022-11-04T13:04:21.568Z,99979.91
2022-11-04T13:06:54.852Z,99980.44
2022-11-04T13:09:39.313Z,99972.16
2022-11-04T13:12:16.478Z,99974.94
2022-11-04T13:14:51.948Z,99974.13
2022-11-04T13:17:24.520Z,99978.00
2022-11-04T13:19:54.245Z,99976.41
2022-11-04T13:22:25.573Z,99982.69
2022-11-04T13:25:20.093Z,99988.06
2022-11-04T13:27:50.592Z,99995.91
2022-11-04T13:30:23.319Z,100006.56
2022-11-04T13:32:59.122Z,100002.31
2022-11-04T13:35:31.743Z,100015.31
2022-11-04T13:38:03.092Z,100024.50
2022-11-04T13:41:10.437Z,100022.28
2022-11-04T13:43:46.682Z,100026.91
2022-11-04T13:46:13.028Z,100016.75
2022-11-04T13:48:50.039Z,100025.69
2022-11-04T13:51:17.913Z,100027.66
2022-11-04T13:53:46.213Z,100035.56
2022-11-04T13:56:37.091Z,100032.78
2022-11-04T13:59:25.290Z,100029.91
2022-11-04T14:02:11.955Z,100027.16
2022-11-04T14:04:43.491Z,100020.84
2022-11-04T14:07:14.370Z,100023.53
2022-11-04T14:09:46.648Z,100025.09
2022-11-04T14:12:19.592Z,100024.78
2022-11-04T14:14:51.499Z,100025.03
2022-11-04T14:17:33.290Z,100019.19
2022-11-04T14:20:08.971Z,100021.53
2022-11-04T14:22:44.296Z,100020.25
2022-11-04T14:25:38.593Z,100015.63
2022-11-04T14:28:11.163Z,100025.41
2022-11-04T14:30:50.826Z,100026.50
2022-11-04T14:33:23.936Z,100025.00
2022-11-04T14:35:55.381Z,100022.50
2022-11-04T14:38:30.616Z,100026.50
2022-11-04T14:41:29.609Z,100033.59
2022-11-04T14:44:00.305Z,100046.50
2022-11-04T14:46:31.267Z,100038.72
2022-11-04T14:49:01.209Z,100047.97
2022-11-04T14:51:30.828Z,100054.66
2022-11-04T14:54:06.505Z,100050.03
2022-11-04T14:56:33.218Z,100055.00
2022-11-04T14:59:07.566Z,100057.09
2022-11-04T15:01:39.585Z,100061.81
2022-11-04T15:04:15.074Z,100063.72
2022-11-04T15:06:54.710Z,100068.41
2022-11-04T15:09:28.756Z,100073.75
2022-11-04T15:12:36.235Z,100073.44
2022-11-04T15:15:30.685Z,100065.09
2022-11-04T15:18:29.098Z,100070.03
2022-11-04T15:20:59.256Z,100070.03
2022-11-04T15:23:31.206Z,100074.31
2022-11-04T15:25:59.283Z,100067.97
2022-11-04T15:28:35.655Z,100066.50
2022-11-04T15:31:05.953Z,100072.34
2022-11-04T15:33:38.724Z,100073.69
2022-11-04T15:36:08.496Z,100070.41
2022-11-04T15:38:36.142Z,100079.72
2022-11-04T15:41:23.596Z,100071.97
2022-11-04T15:43:50.344Z,100079.50
2022-11-04T15:46:20.950Z,100079.72
2022-11-04T15:49:01.793Z,100089.94
2022-11-04T15:51:31.198Z,100082.44
2022-11-04T15:54:18.867Z,100088.50
2022-11-04T15:56:52.537Z,100086.31
2022-11-04T15:59:23.700Z,100093.69
2022-11-04T16:01:52.624Z,100100.34
2022-11-04T16:04:22.893Z,100104.28
2022-11-04T16:07:05.714Z,100103.91
2022-11-04T16:09:46.279Z,100097.38
2022-11-04T16:12:34.249Z,100103.78
2022-11-04T16:15:00.750Z,100107.53
2022-11-04T16:17:28.708Z,100115.75
2022-11-04T16:20:02.577Z,100114.63
2022-11-04T16:22:32.919Z,100108.25
2022-11-04T16:25:02.019Z,100112.00
2022-11-04T16:27:32.819Z,100126.56
2022-11-04T16:30:10.580Z,100125.28
2022-11-04T16:32:45.272Z,100120.09
2022-11-04T16:35:14.692Z,100125.94
2022-11-04T16:37:41.097Z,100119.66
2022-11-04T16:40:08.232Z,100115.34
2022-11-04T16:42:34.633Z,100113.59
2022-11-04T16:45:03.304Z,100117.63
2022-11-04T16:47:30.777Z,100124.63
2022-11-04T16:50:01.758Z,100121.81
2022-11-04T16:52:28.596Z,100123.16
2022-11-04T16:54:56.276Z,100125.16
2022-11-04T16:57:24.481Z,100125.38
2022-11-04T16:59:51.182Z,100130.50
2022-11-04T17:02:21.212Z,100137.94
2022-11-04T17:04:47.915Z,100137.28
2022-11-04T17:07:14.442Z,100147.50
2022-11-04T17:09:41.046Z,100149.25
2022-11-04T17:12:07.892Z,100147.44
2022-11-04T17:14:34.971Z,100158.59
2022-11-04T17:17:01.933Z,100158.84
2022-11-04T17:19:34.249Z,100162.69
2022-11-04T17:22:04.231Z,100161.41
2022-11-04T17:24:30.803Z,100155.72
2022-11-04T17:26:57.376Z,100168.19
2022-11-04T17:29:23.938Z,100165.63
2022-11-04T17:31:50.522Z,100167.47
2022-11-04T17:34:16.911Z,100167.19
2022-11-04T17:36:43.415Z,100172.81
2022-11-04T17:39:09.904Z,100167.25
2022-11-04T17:41:54.776Z,100171.72
2022-11-04T17:44:21.269Z,100175.84
2022-11-04T17:46:48.777Z,100181.06
2022-11-04T17:49:20.749Z,100184.25
2022-11-04T17:51:50.318Z,100178.22
2022-11-04T17:54:17.138Z,100193.38
2022-11-04T17:56:43.775Z,100191.97
2022-11-04T17:59:12.303Z,100197.50
2022-11-04T18:01:39.771Z,100200.03
2022-11-04T18:04:07.360Z,100200.09
2022-11-04T18:06:35.952Z,100202.75
2022-11-04T18:09:03.404Z,100205.13
2022-11-04T18:11:48.950Z,100208.81
2022-11-04T18:14:17.474Z,100215.72
2022-11-04T18:16:46.882Z,100206.31
2022-11-04T18:19:14.531Z,100214.28
2022-11-04T18:21:40.954Z,100212.28
2022-11-04T18:24:07.842Z,100211.78
2022-11-04T18:26:34.500Z,100227.22
2022-11-04T18:29:01.784Z,100223.47
2022-11-04T18:31:34.150Z,100226.97
2022-11-04T18:34:02.848Z,100231.81
2022-11-04T18:36:31.023Z,100233.91
2022-11-04T18:38:57.471Z,100232.69
2022-11-04T18:41:23.937Z,100238.09
2022-11-04T18:43:50.331Z,100236.16
2022-11-04T18:46:17.624Z,100239.66
2022-11-04T18:48:49.512Z,100242.47
2022-11-04T18:51:19.126Z,100248.91
2022-11-04T18:53:46.076Z,100243.00
2022-11-04T18:56:19.372Z,100242.56
2022-11-04T18:58:46.296Z,100244.94
2022-11-04T19:01:20.403Z,100246.88
2022-11-04T19:03:47.499Z,100240.38
2022-11-04T19:06:17.442Z,100255.97
2022-11-04T19:08:46.840Z,100248.41
2022-11-04T19:11:22.789Z,100247.19
2022-11-04T19:13:55.121Z,100259.06
2022-11-04T19:16:22.519Z,100253.50
2022-11-04T19:18:49.487Z,100255.44
2022-11-04T19:21:18.803Z,100257.69
2022-11-04T19:23:45.869Z,100258.69
2022-11-04T19:26:19.002Z,100265.38
2022-11-04T19:28:48.520Z,100261.53
2022-11-04T19:31:18.096Z,100262.16
2022-11-04T19:33:44.844Z,100261.53
2022-11-04T19:36:12.489Z,100270.94
2022-11-04T19:38:39.459Z,100267.72
2022-11-04T19:41:32.946Z,100267.75
2022-11-04T19:44:01.781Z,100266.09
2022-11-04T19:46:28.389Z,100272.84
2022-11-04T19:48:56.533Z,100268.13
2022-11-04T19:51:26.607Z,100273.25
2022-11-04T19:53:57.318Z,100280.75
2022-11-04T19:56:24.758Z,100274.84
2022-11-04T19:58:51.292Z,100278.13
2022-11-04T20:01:18.701Z,100275.63
2022-11-04T20:03:45.457Z,100278.59
2022-11-04T20:06:15.301Z,100273.03
2022-11-04T20:08:44.306Z,100274.84
2022-11-04T20:11:12.597Z,100277.06
2022-11-04T20:13:46.606Z,100279.53
2022-11-04T20:16:13.631Z,100274.03
2022-11-04T20:18:40.135Z,100275.22
2022-11-04T20:21:06.662Z,100282.53
2022-11-04T20:23:33.126Z,100287.25
2022-11-04T20:26:26.738Z,100291.69
2022-11-04T20:28:54.621Z,100290.56
2022-11-04T20:31:23.744Z,100287.81
2022-11-04T20:33:51.652Z,100287.38
2022-11-04T20:36:21.115Z,100293.28
2022-11-04T20:38:47.840Z,100294.72
2022-11-04T20:41:18.767Z,100298.13
2022-11-04T20:43:49.376Z,100301.59
2022-11-04T20:46:21.950Z,100306.97
2022-11-04T20:48:50.266Z,100301.34
2022-11-04T20:51:19.957Z,100312.56
2022-11-04T20:53:47.489Z,100323.84
2022-11-04T20:56:18.251Z,100330.47
2022-11-04T20:58:47.830Z,100328.63
2022-11-04T21:01:21.301Z,100337.75
2022-11-04T21:03:47.833Z,100349.78
2022-11-04T21:06:14.259Z,100349.41
2022-11-04T21:08:40.677Z,100341.97
2022-11-04T21:11:07.921Z,100343.66
2022-11-04T21:13:34.483Z,100340.56
2022-11-04T21:16:01.777Z,100341.69
2022-11-04T21:18:28.296Z,100333.75
2022-11-04T21:20:55.298Z,100339.66
2022-11-04T21:23:22.303Z,100334.56
2022-11-04T21:25:57.517Z,100331.91
2022-11-04T21:28:24.965Z,100336.31
2022-11-04T21:30:53.444Z,100337.81
2022-11-04T21:33:20.070Z,100336.56
2022-11-04T21:35:50.384Z,100341.03
2022-11-04T21:38:18.213Z,100348.16
2022-11-04T21:40:45.420Z,100355.25
2022-11-04T21:43:13.345Z,100366.47
2022-11-04T21:45:39.938Z,100364.03
2022-11-04T21:48:06.803Z,100370.69
2022-11-04T21:50:33.610Z,100365.47
2022-11-04T21:53:00.395Z,100362.28
2022-11-04T21:55:26.818Z,100368.34
2022-11-04T21:57:53.337Z,100375.81
2022-11-04T22:00:19.781Z,100372.53
2022-11-04T22:02:52.959Z,100375.44
2022-11-04T22:05:19.556Z,100375.72
2022-11-04T22:08:04.549Z,100379.41
2022-11-04T22:10:31.185Z,100374.00
2022-11-04T22:12:57.614Z,100376.03
2022-11-04T22:15:42.727Z,100375.09
2022-11-04T22:18:09.261Z,100377.47
2022-11-04T22:20:36.785Z,100379.22
2022-11-04T22:23:03.471Z,100378.41
2022-11-04T22:25:30.600Z,100376.25
2022-11-04T22:27:57.264Z,100382.59
2022-11-04T22:30:24.068Z,100374.81
2022-11-04T22:32:51.705Z,100373.06
2022-11-04T22:35:18.304Z,100380.56
2022-11-04T22:37:44.777Z,100380.47
2022-11-04T22:40:11.821Z,100378.00
2022-11-04T22:42:38.428Z,100381.28
2022-11-04T22:45:05.599Z,100386.41
2022-11-04T22:47:32.182Z,100380.66
2022-11-04T22:49:58.591Z,100395.94
2022-11-04T22:52:25.147Z,100394.53
2022-11-04T22:54:51.649Z,100399.56
2022-11-04T22:57:18.087Z,100409.44
2022-11-04T22:59:44.607Z,100411.63
2022-11-04T23:02:11.288Z,100414.22
2022-11-04T23:04:37.894Z,100416.59
2022-11-04T23:07:04.744Z,100416.53
2022-11-04T23:09:31.867Z,100419.16
2022-11-04T23:12:17.060Z,100420.84
2022-11-04T23:14:43.488Z,100423.06
2022-11-04T23:17:37.060Z,100422.97
2022-11-04T23:20:05.940Z,100430.66
2022-11-04T23:22:50.746Z,100435.00
2022-11-04T23:25:17.600Z,100431.28
2022-11-04T23:28:06.771Z,100446.63
2022-11-04T23:30:36.688Z,100448.56
2022-11-04T23:33:09.081Z,100446.38
2022-11-04T23:36:01.067Z,100450.88
2022-11-04T23:38:31.158Z,100450.44
2022-11-04T23:41:18.572Z,100454.75
2022-11-04T23:43:45.240Z,100450.81
2022-11-04T23:46:30.430Z,100454.22
2022-11-04T23:49:15.729Z,100451.47
2022-11-04T23:52:00.768Z,100446.47
2022-11-04T23:54:46.172Z,100451.41
2022-11-04T23:57:36.144Z,100454.22
